createdAt,value
2018-05-14T05:02:57.437Z,94366.56
2018-05-14T05:05:30.730Z,94371.05
2018-05-14T05:08:04.008Z,94366.28
2018-05-14T05:10:38.061Z,94366.56
2018-05-14T05:13:11.323Z,94366.06
2018-05-14T05:15:45.376Z,94364.38
2018-05-14T05:18:18.638Z,94366.36
2018-05-14T05:20:51.928Z,94374.86
2018-05-14T05:23:25.244Z,94365.95
2018-05-14T05:25:58.497Z,94368.66
2018-05-14T05:28:31.747Z,94365.19
2018-05-14T05:31:05.033Z,94360.89
2018-05-14T05:33:38.292Z,94361.57
2018-05-14T05:36:11.577Z,94358.89
2018-05-14T05:38:45.603Z,94363.92
2018-05-14T05:41:19.664Z,94362.38
2018-05-14T05:43:52.909Z,94373.00
2018-05-14T05:46:26.187Z,94373.27
2018-05-14T05:49:00.217Z,94381.30
2018-05-14T05:51:33.528Z,94383.33
2018-05-14T05:54:06.876Z,94389.62
2018-05-14T05:56:40.872Z,94399.16
2018-05-14T05:59:14.115Z,94391.41
2018-05-14T06:01:48.157Z,94394.48
2018-05-14T06:04:21.429Z,94387.59
2018-05-14T06:06:54.707Z,94384.30
2018-05-14T06:09:28.004Z,94382.23
2018-05-14T06:12:01.244Z,94382.69
2018-05-14T06:14:34.513Z,94385.39
2018-05-14T06:17:07.787Z,94388.55
2018-05-14T06:19:41.051Z,94386.23
2018-05-14T06:22:14.390Z,94394.27
2018-05-14T06:24:47.601Z,94388.55
2018-05-14T06:27:20.869Z,94401.77
2018-05-14T06:29:54.139Z,94398.36
2018-05-14T06:32:28.180Z,94397.59
2018-05-14T06:35:01.443Z,94402.94
2018-05-14T06:37:35.496Z,94402.56
2018-05-14T06:40:08.752Z,94405.23
2018-05-14T06:42:42.795Z,94403.74
2018-05-14T06:45:16.067Z,94397.80
2018-05-14T06:47:50.112Z,94393.41
2018-05-14T06:50:23.401Z,94396.20
2018-05-14T06:52:56.688Z,94393.14
2018-05-14T06:55:30.104Z,94389.58
2018-05-14T06:58:03.399Z,94392.70
2018-05-14T07:00:36.680Z,94390.06
2018-05-14T07:03:10.023Z,94386.20
2018-05-14T07:05:43.435Z,94381.13
2018-05-14T07:08:16.710Z,94376.88
2018-05-14T07:10:49.996Z,94380.74
2018-05-14T07:13:23.280Z,94374.81
2018-05-14T07:15:56.531Z,94372.16
2018-05-14T07:18:29.948Z,94376.16
2018-05-14T07:21:03.270Z,94372.97
2018-05-14T07:23:36.680Z,94368.45
2018-05-14T07:26:09.998Z,94369.92
2018-05-14T07:28:43.448Z,94369.14
2018-05-14T07:31:16.793Z,94373.23
2018-05-14T07:33:50.258Z,94375.28
2018-05-14T07:36:23.570Z,94372.22
2018-05-14T07:38:57.742Z,94378.06
2018-05-14T07:41:31.053Z,94368.97
2018-05-14T07:44:04.380Z,94369.66
2018-05-14T07:46:37.680Z,94377.67
2018-05-14T07:49:11.075Z,94380.12
2018-05-14T07:51:44.385Z,94373.09
2018-05-14T07:54:17.734Z,94376.86
2018-05-14T07:56:51.029Z,94373.12
2018-05-14T07:59:24.381Z,94376.91
2018-05-14T08:01:57.644Z,94383.45
2018-05-14T08:04:30.939Z,94386.13
2018-05-14T08:07:04.205Z,94384.30
2018-05-14T08:09:38.201Z,94384.42
2018-05-14T08:12:11.478Z,94387.28
2018-05-14T08:14:44.756Z,94385.88
2018-05-14T08:17:18.794Z,94389.30
2018-05-14T08:19:52.071Z,94394.13
2018-05-14T08:22:25.340Z,94396.25
2018-05-14T08:24:58.624Z,94400.56
2018-05-14T08:27:31.890Z,94402.23
2018-05-14T08:30:05.193Z,94404.30
2018-05-14T08:32:38.459Z,94396.39
2018-05-14T08:35:11.745Z,94401.11
2018-05-14T08:37:45.011Z,94397.70
2018-05-14T08:40:18.939Z,94394.66
2018-05-14T08:42:52.148Z,94388.59
2018-05-14T08:45:25.433Z,94388.97
2018-05-14T08:47:59.605Z,94390.97
2018-05-14T08:50:32.804Z,94386.41
2018-05-14T08:53:06.857Z,94395.14
2018-05-14T08:55:40.140Z,94390.41
2018-05-14T08:58:14.181Z,94392.77
2018-05-14T09:00:47.476Z,94390.64
2018-05-14T09:03:20.742Z,94396.38
2018-05-14T09:05:54.005Z,94392.75
2018-05-14T09:08:27.279Z,94391.13
2018-05-14T09:11:00.544Z,94393.28
2018-05-14T09:13:33.832Z,94394.24
2018-05-14T09:16:07.100Z,94382.92
2018-05-14T09:18:40.372Z,94394.14
2018-05-14T09:21:13.635Z,94399.94
2018-05-14T09:23:46.918Z,94404.06
2018-05-14T09:26:20.171Z,94403.52
2018-05-14T09:28:53.455Z,94401.06
2018-05-14T09:31:27.493Z,94408.52
2018-05-14T09:34:00.770Z,94412.08
2018-05-14T09:36:34.079Z,94409.30
2018-05-14T09:39:07.335Z,94407.20
2018-05-14T09:41:40.600Z,94405.51
2018-05-14T09:44:14.652Z,94404.91
2018-05-14T09:46:48.681Z,94405.66
2018-05-14T09:49:22.727Z,94404.23
2018-05-14T09:51:56.011Z,94402.30
2018-05-14T09:54:29.275Z,94404.09
2018-05-14T09:57:03.319Z,94409.17
2018-05-14T09:59:36.653Z,94402.88
2018-05-14T10:02:09.934Z,94397.23
2018-05-14T10:04:43.187Z,94404.64
2018-05-14T10:07:16.469Z,94396.59
2018-05-14T10:09:50.496Z,94402.35
2018-05-14T10:12:23.808Z,94400.25
2018-05-14T10:14:57.084Z,94402.27
2018-05-14T10:17:30.380Z,94414.69
2018-05-14T10:20:03.660Z,94410.38
2018-05-14T10:22:37.811Z,94410.36
2018-05-14T10:25:11.079Z,94405.78
2018-05-14T10:27:44.363Z,94411.86
2018-05-14T10:30:17.625Z,94408.90
2018-05-14T10:32:51.025Z,94401.33
2018-05-14T10:35:24.275Z,94409.84
2018-05-14T10:37:57.592Z,94407.67
2018-05-14T10:40:30.849Z,94405.81
2018-05-14T10:43:04.125Z,94402.73
2018-05-14T10:45:37.392Z,94399.91
2018-05-14T10:48:10.692Z,94398.55
2018-05-14T10:50:43.949Z,94401.77
2018-05-14T10:53:17.243Z,94401.25
2018-05-14T10:55:50.504Z,94397.20
2018-05-14T10:58:23.789Z,94402.59
2018-05-14T11:00:57.809Z,94400.27
2018-05-14T11:03:31.094Z,94404.08
2018-05-14T11:06:05.131Z,94407.07
2018-05-14T11:08:38.400Z,94398.55
2018-05-14T11:11:12.429Z,94409.32
2018-05-14T11:13:45.708Z,94405.60
2018-05-14T11:16:19.742Z,94395.84
2018-05-14T11:18:53.051Z,94404.07
2018-05-14T11:21:26.289Z,94403.16
2018-05-14T11:24:00.341Z,94401.38
2018-05-14T11:26:33.612Z,94401.86
2018-05-14T11:29:06.889Z,94399.12
2018-05-14T11:31:40.907Z,94394.20
2018-05-14T11:34:14.952Z,94388.45
2018-05-14T11:36:48.219Z,94387.38
2018-05-14T11:39:22.269Z,94385.89
2018-05-14T11:41:55.528Z,94378.98
2018-05-14T11:44:28.809Z,94384.80
2018-05-14T11:47:02.837Z,94382.56
2018-05-14T11:49:36.126Z,94391.76
2018-05-14T11:52:09.452Z,94393.11
2018-05-14T11:54:42.664Z,94387.92
2018-05-14T11:57:15.917Z,94391.00
2018-05-14T11:59:49.211Z,94391.73
2018-05-14T12:02:22.596Z,94401.88
2018-05-14T12:04:56.622Z,94396.45
2018-05-14T12:07:29.899Z,94389.33
2018-05-14T12:10:04.031Z,94394.39
2018-05-14T12:12:37.212Z,94388.33
2018-05-14T12:15:10.471Z,94391.95
2018-05-14T12:17:43.752Z,94390.19
2018-05-14T12:20:17.036Z,94394.14
2018-05-14T12:22:50.308Z,94386.81
2018-05-14T12:25:23.580Z,94385.91
2018-05-14T12:27:57.631Z,94369.83
2018-05-14T12:30:30.892Z,94373.81
2018-05-14T12:33:04.184Z,94368.47
2018-05-14T12:35:38.221Z,94365.67
2018-05-14T12:38:11.487Z,94363.78
2018-05-14T12:40:44.748Z,94362.35
2018-05-14T12:43:18.033Z,94352.55
2018-05-14T12:45:51.302Z,94344.05
2018-05-14T12:48:24.577Z,94341.48
2018-05-14T12:50:57.831Z,94335.85
2018-05-14T12:53:31.113Z,94332.70
2018-05-14T12:56:05.147Z,94329.97
2018-05-14T12:58:39.199Z,94317.84
2018-05-14T13:01:12.466Z,94317.80
2018-05-14T13:03:46.861Z,94312.23
2018-05-14T13:06:20.131Z,94309.88
2018-05-14T13:08:53.401Z,94311.94
2018-05-14T13:11:26.699Z,94309.50
2018-05-14T13:13:59.963Z,94309.90
2018-05-14T13:16:33.249Z,94303.23
2018-05-14T13:19:06.553Z,94292.95
2018-05-14T13:21:39.917Z,94294.69
2018-05-14T13:24:13.171Z,94293.50
2018-05-14T13:26:46.452Z,94287.48
2018-05-14T13:29:19.718Z,94281.80
2018-05-14T13:31:53.763Z,94279.51
2018-05-14T13:34:27.025Z,94282.87
2018-05-14T13:37:01.068Z,94285.50
2018-05-14T13:39:34.329Z,94289.05
2018-05-14T13:42:08.383Z,94292.70
2018-05-14T13:44:41.648Z,94295.19
2018-05-14T13:47:14.932Z,94305.44
2018-05-14T13:49:48.981Z,94304.30
2018-05-14T13:52:22.269Z,94305.45
2018-05-14T13:54:55.532Z,94312.59
2018-05-14T13:57:29.605Z,94310.43
2018-05-14T14:00:02.878Z,94298.81
2018-05-14T14:02:36.364Z,94290.95
2018-05-14T14:05:09.633Z,94288.75
2018-05-14T14:07:43.712Z,94286.05
2018-05-14T14:10:17.188Z,94277.09
2018-05-14T14:12:50.558Z,94272.98
2018-05-14T14:15:23.808Z,94286.14
2018-05-14T14:17:57.143Z,94280.28
2018-05-14T14:20:30.416Z,94285.56
2018-05-14T14:23:04.546Z,94281.52
2018-05-14T14:25:37.753Z,94282.26
2018-05-14T14:28:11.034Z,94279.10
2018-05-14T14:30:44.309Z,94279.61
2018-05-14T14:33:17.580Z,94277.21
2018-05-14T14:35:50.847Z,94266.94
2018-05-14T14:38:24.135Z,94258.32
2018-05-14T14:40:57.392Z,94255.03
2018-05-14T14:43:30.712Z,94252.20
2018-05-14T14:46:03.975Z,94259.64
2018-05-14T14:48:38.018Z,94243.12
2018-05-14T14:51:11.280Z,94244.65
2018-05-14T14:53:44.563Z,94249.67
2018-05-14T14:56:17.819Z,94234.30
2018-05-14T14:58:51.089Z,94233.80
2018-05-14T15:01:24.352Z,94239.20
2018-05-14T15:03:57.631Z,94242.77
2018-05-14T15:06:30.884Z,94247.22
2018-05-14T15:09:04.173Z,94237.30
2018-05-14T15:11:37.440Z,94239.64
2018-05-14T15:14:11.463Z,94238.58
2018-05-14T15:16:44.739Z,94237.30
2018-05-14T15:19:18.792Z,94226.94
2018-05-14T15:21:52.053Z,94200.11
2018-05-14T15:24:25.371Z,94224.30
2018-05-14T15:26:58.595Z,94218.91
2018-05-14T15:29:31.872Z,94214.11
2018-05-14T15:32:05.119Z,94213.02
2018-05-14T15:34:39.175Z,94209.28
2018-05-14T15:37:12.420Z,94214.13
2018-05-14T15:39:46.462Z,94200.14
2018-05-14T15:42:19.723Z,94204.81
2018-05-14T15:44:52.997Z,94214.50
2018-05-14T15:47:26.251Z,94216.17
2018-05-14T15:49:59.616Z,94204.61
2018-05-14T15:52:32.805Z,94217.61
2018-05-14T15:55:06.852Z,94219.61
2018-05-14T15:57:40.112Z,94223.73
2018-05-14T16:00:13.400Z,94222.18
2018-05-14T16:02:46.649Z,94223.73
2018-05-14T16:05:19.933Z,94224.13
2018-05-14T16:07:53.200Z,94231.06
2018-05-14T16:10:27.233Z,94245.02
2018-05-14T16:13:00.489Z,94246.95
2018-05-14T16:15:34.548Z,94246.15
2018-05-14T16:18:07.804Z,94250.73
2018-05-14T16:20:41.870Z,94251.69
2018-05-14T16:23:15.097Z,94251.07
2018-05-14T16:25:48.484Z,94252.06
2018-05-14T16:28:21.747Z,94252.61
2018-05-14T16:30:55.021Z,94249.83
2018-05-14T16:33:28.275Z,94251.88
2018-05-14T16:36:02.324Z,94248.00
2018-05-14T16:38:35.586Z,94253.59
2018-05-14T16:41:08.853Z,94256.13
2018-05-14T16:43:42.103Z,94250.67
2018-05-14T16:46:15.392Z,94250.75
2018-05-14T16:48:48.656Z,94249.50
2018-05-14T16:51:21.927Z,94259.48
2018-05-14T16:53:55.187Z,94254.00
2018-05-14T16:56:28.488Z,94259.16
2018-05-14T16:59:01.749Z,94256.27
2018-05-14T17:01:35.907Z,94252.09
2018-05-14T17:04:09.243Z,94263.70
2018-05-14T17:06:42.520Z,94258.05
2018-05-14T17:09:15.773Z,94265.92
2018-05-14T17:11:49.162Z,94269.52
2018-05-14T17:14:22.427Z,94278.81
2018-05-14T17:16:55.726Z,94287.63
2018-05-14T17:19:29.741Z,94287.48
2018-05-14T17:22:03.024Z,94295.86
2018-05-14T17:24:37.049Z,94303.14
2018-05-14T17:27:11.202Z,94295.92
2018-05-14T17:29:44.475Z,94296.10
2018-05-14T17:32:17.754Z,94305.70
2018-05-14T17:34:51.005Z,94307.02
2018-05-14T17:37:24.281Z,94307.97
2018-05-14T17:39:57.549Z,94308.41
2018-05-14T17:42:30.839Z,94310.33
2018-05-14T17:45:04.101Z,94315.77
2018-05-14T17:47:37.491Z,94317.27
2018-05-14T17:50:11.577Z,94324.06
2018-05-14T17:52:44.921Z,94330.84
2018-05-14T17:55:21.231Z,94328.28
2018-05-14T17:57:55.082Z,94330.03
2018-05-14T18:00:28.374Z,94329.97
2018-05-14T18:03:01.773Z,94333.34
2018-05-14T18:05:35.060Z,94331.61
2018-05-14T18:08:08.329Z,94332.44
2018-05-14T18:10:41.671Z,94335.99
2018-05-14T18:13:14.885Z,94328.83
2018-05-14T18:15:48.135Z,94332.63
2018-05-14T18:18:21.415Z,94334.95
2018-05-14T18:21:00.497Z,94340.24
2018-05-14T18:23:39.308Z,94338.36
2018-05-14T18:26:18.756Z,94338.91
2018-05-14T18:28:53.513Z,94341.63
2018-05-14T18:31:27.814Z,94346.78
2018-05-14T18:34:06.455Z,94350.29
2018-05-14T18:36:40.482Z,94347.87
2018-05-14T18:39:13.791Z,94351.92
2018-05-14T18:41:47.030Z,94359.27
2018-05-14T18:44:34.918Z,94359.59
2018-05-14T18:47:08.180Z,94362.18
2018-05-14T18:49:41.453Z,94364.34
2018-05-14T18:52:15.282Z,94363.58
2018-05-14T18:54:48.574Z,94365.47
2018-05-14T18:57:26.120Z,94376.02
2018-05-14T19:00:00.171Z,94374.68
2018-05-14T19:02:33.436Z,94372.95
2018-05-14T19:05:07.468Z,94382.41
2018-05-14T19:07:40.727Z,94382.41
2018-05-14T19:10:20.244Z,94386.09
2018-05-14T19:12:53.513Z,94391.13
2018-05-14T19:15:32.096Z,94388.42
2018-05-14T19:18:05.364Z,94391.53
2018-05-14T19:20:40.140Z,94388.98
2018-05-14T19:23:18.930Z,94394.38
2018-05-14T19:25:52.211Z,94397.89
2018-05-14T19:28:31.049Z,94398.84
2018-05-14T19:31:05.079Z,94395.33
2018-05-14T19:33:43.841Z,94398.01
2018-05-14T19:36:17.118Z,94400.31
2018-05-14T19:38:50.391Z,94394.52
2018-05-14T19:41:23.681Z,94395.05
2018-05-14T19:43:56.945Z,94395.97
2018-05-14T19:46:30.213Z,94403.14
2018-05-14T19:49:03.474Z,94401.91
2018-05-14T19:51:36.768Z,94406.65
2018-05-14T19:54:10.050Z,94406.66
2018-05-14T19:56:43.323Z,94409.73
2018-05-14T19:59:17.352Z,94409.74
2018-05-14T20:01:50.632Z,94408.94
2018-05-14T20:04:24.652Z,94416.08
2018-05-14T20:06:58.703Z,94419.84
2018-05-14T20:09:32.035Z,94415.93
2018-05-14T20:12:05.304Z,94412.28
2018-05-14T20:14:38.577Z,94411.61
2018-05-14T20:17:11.824Z,94418.76
2018-05-14T20:19:45.099Z,94417.79
2018-05-14T20:22:18.360Z,94422.11
2018-05-14T20:24:51.657Z,94420.63
2018-05-14T20:27:24.917Z,94424.94
2018-05-14T20:29:58.958Z,94427.23
2018-05-14T20:32:32.216Z,94422.92
2018-05-14T20:35:06.367Z,94426.83
2018-05-14T20:37:39.644Z,94425.88
2018-05-14T20:40:13.704Z,94430.74
2018-05-14T20:42:46.982Z,94425.86
2018-05-14T20:45:20.461Z,94430.44
2018-05-14T20:47:53.635Z,94434.89
2018-05-14T20:50:27.009Z,94433.00
2018-05-14T20:53:01.045Z,94435.70
2018-05-14T20:55:35.077Z,94430.81
2018-05-14T20:58:08.344Z,94445.37
2018-05-14T21:00:42.417Z,94441.60
2018-05-14T21:03:15.675Z,94438.33
2018-05-14T21:05:49.180Z,94438.33
2018-05-14T21:08:22.324Z,94437.73
2018-05-14T21:10:55.613Z,94438.27
2018-05-14T21:13:28.866Z,94440.69
2018-05-14T21:16:02.144Z,94444.42
2018-05-14T21:18:35.406Z,94444.83
2018-05-14T21:21:09.567Z,94447.79
2018-05-14T21:23:42.830Z,94448.69
2018-05-14T21:26:16.873Z,94450.30
2018-05-14T21:28:50.126Z,94455.55
2018-05-14T21:31:24.178Z,94450.52
2018-05-14T21:33:57.431Z,94449.58
2018-05-14T21:36:31.483Z,94454.84
2018-05-14T21:39:04.804Z,94454.30
2018-05-14T21:41:38.133Z,94454.16
2018-05-14T21:44:12.151Z,94459.13
2018-05-14T21:46:45.432Z,94460.20
2018-05-14T21:49:18.689Z,94461.65
2018-05-14T21:51:51.963Z,94461.38
2018-05-14T21:54:25.227Z,94464.87
2018-05-14T21:56:59.276Z,94467.56
2018-05-14T21:59:32.537Z,94465.94
2018-05-14T22:02:06.560Z,94468.87
2018-05-14T22:04:39.832Z,94472.09
2018-05-14T22:07:13.989Z,94478.54
2018-05-14T22:09:47.243Z,94478.23
2018-05-14T22:12:21.295Z,94483.58
2018-05-14T22:14:54.551Z,94482.22
2018-05-14T22:17:27.838Z,94477.88
2018-05-14T22:20:01.852Z,94482.17
2018-05-14T22:22:35.992Z,94476.80
2018-05-14T22:25:09.252Z,94480.84
2018-05-14T22:27:42.543Z,94483.92
